Latest METARs, TAFs and NOTAMs for TBPB


---------------------------------------------------------------------------
	(OBSERVATIONS)
TBPB 291500Z 11014KT 9999 SCT018 30/26 Q1015 NOSIG=
TBPB 291400Z 10013KT 9999 -SHRA BKN018 29/26 Q1015 NOSIG=
TBPB 291300Z 10014KT 9999 FEW016CB BKN018 29/26 Q1015 NOSIG=
---------------------------------------------------------------------------
	(TERMINAL AREA FORECAST)
TBPB 291100Z 2912/3012 11016KT 9999 SCT018=
---------------------------------------------------------------------------
	(NOTAMS)


TBPB A0883/17 ILS GP 09 334.4MHZ SUBJ INTRP DUE GRASS CUTTING.
    1200-1600, 28 JUN 12:00 2017 UNTIL 29 JUN 16:00 2017. CREATED:
    27 JUN 17:46 2017

---------------------------------------------------------------------------